sensor_id;sensor_type;location;lat;lon;timestamp;temperature;humidity
78571;SHT31;67861;51.966;5.672;2024-01-15T00:00:00;5.7;66.4
78571;SHT31;67861;51.966;5.672;2024-01-15T00:02:30;5.7;66.5
78571;SHT31;67861;51.966;5.672;2024-01-15T00:04:58;5.7;66.6
78571;SHT31;67861;51.966;5.672;2024-01-15T00:07:26;5.6;66.7
78571;SHT31;67861;51.966;5.672;2024-01-15T00:09:55;5.6;66.8
78571;SHT31;67861;51.966;5.672;2024-01-15T00:12:24;5.6;67.0
78571;SHT31;67861;51.966;5.672;2024-01-15T00:14:53;5.5;66.9
78571;SHT31;67861;51.966;5.672;2024-01-15T00:17:22;5.5;66.9
78571;SHT31;67861;51.966;5.672;2024-01-15T00:19:50;5.5;66.9
78571;SHT31;67861;51.966;5.672;2024-01-15T00:22:19;5.5;66.9
78571;SHT31;67861;51.966;5.672;2024-01-15T00:24:47;5.4;67.0
78571;SHT31;67861;51.966;5.672;2024-01-15T00:27:16;5.4;67.1
78571;SHT31;67861;51.966;5.672;2024-01-15T00:29:44;5.4;67.1
78571;SHT31;67861;51.966;5.672;2024-01-15T00:32:13;5.4;67.0
78571;SHT31;67861;51.966;5.672;2024-01-15T00:34:41;5.4;67.0
78571;SHT31;67861;51.966;5.672;2024-01-15T00:37:10;5.3;67.1
78571;SHT31;67861;51.966;5.672;2024-01-15T00:39:40;5.3;67.7
78571;SHT31;67861;51.966;5.672;2024-01-15T00:42:08;5.4;67.5
78571;SHT31;67861;51.966;5.672;2024-01-15T00:44:37;5.4;67.3
78571;SHT31;67861;51.966;5.672;2024-01-15T00:47:05;5.5;67.1
78571;SHT31;67861;51.966;5.672;2024-01-15T00:49:34;5.6;66.8
78571;SHT31;67861;51.966;5.672;2024-01-15T00:52:03;5.6;66.5
78571;SHT31;67861;51.966;5.672;2024-01-15T00:54:31;5.7;66.2
78571;SHT31;67861;51.966;5.672;2024-01-15T00:57:00;5.8;65.9
78571;SHT31;67861;51.966;5.672;2024-01-15T00:59:28;5.8;65.5
78571;SHT31;67861;51.966;5.672;2024-01-15T01:01:57;5.9;65.1
78571;SHT31;67861;51.966;5.672;2024-01-15T01:04:25;5.9;64.7
78571;SHT31;67861;51.966;5.672;2024-01-15T01:06:54;6.0;64.5
78571;SHT31;67861;51.966;5.672;2024-01-15T01:09:22;6.0;64.2
78571;SHT31;67861;51.966;5.672;2024-01-15T01:11:51;6.1;64.1
78571;SHT31;67861;51.966;5.672;2024-01-15T01:14:19;6.1;63.9
78571;SHT31;67861;51.966;5.672;2024-01-15T01:16:47;6.1;63.7
78571;SHT31;67861;51.966;5.672;2024-01-15T01:19:16;6.2;63.4
78571;SHT31;67861;51.966;5.672;2024-01-15T01:21:44;6.2;63.3
78571;SHT31;67861;51.966;5.672;2024-01-15T01:24:13;6.2;63.4
78571;SHT31;67861;51.966;5.672;2024-01-15T01:26:42;6.2;63.6
78571;SHT31;67861;51.966;5.672;2024-01-15T01:29:12;6.3;63.5
78571;SHT31;67861;51.966;5.672;2024-01-15T01:31:44;6.3;63.1
78571;SHT31;67861;51.966;5.672;2024-01-15T01:34:14;6.3;62.7
78571;SHT31;67861;51.966;5.672;2024-01-15T01:36:43;6.3;62.4
78571;SHT31;67861;51.966;5.672;2024-01-15T01:39:14;6.4;62.1
78571;SHT31;67861;51.966;5.672;2024-01-15T01:41:44;6.4;61.9
78571;SHT31;67861;51.966;5.672;2024-01-15T01:44:13;6.4;61.7
78571;SHT31;67861;51.966;5.672;2024-01-15T01:46:41;6.4;61.5
78571;SHT31;67861;51.966;5.672;2024-01-15T01:49:10;6.4;61.2
78571;SHT31;67861;51.966;5.672;2024-01-15T01:51:38;6.4;61.1
78571;SHT31;67861;51.966;5.672;2024-01-15T01:54:08;6.4;61.0
78571;SHT31;67861;51.966;5.672;2024-01-15T01:56:40;6.4;60.8
78571;SHT31;67861;51.966;5.672;2024-01-15T01:59:11;6.4;60.8
78571;SHT31;67861;51.966;5.672;2024-01-15T02:01:41;6.4;60.8
78571;SHT31;67861;51.966;5.672;2024-01-15T02:04:11;6.4;60.7
78571;SHT31;67861;51.966;5.672;2024-01-15T02:06:39;6.4;60.6
78571;SHT31;67861;51.966;5.672;2024-01-15T02:09:08;6.4;60.6
78571;SHT31;67861;51.966;5.672;2024-01-15T02:11:37;6.4;60.5
78571;SHT31;67861;51.966;5.672;2024-01-15T02:14:08;6.4;60.3
78571;SHT31;67861;51.966;5.672;2024-01-15T02:16:39;6.4;60.3
78571;SHT31;67861;51.966;5.672;2024-01-15T02:19:11;6.4;60.3
78571;SHT31;67861;51.966;5.672;2024-01-15T02:21:42;6.4;60.3
78571;SHT31;67861;51.966;5.672;2024-01-15T02:24:11;6.4;60.3
78571;SHT31;67861;51.966;5.672;2024-01-15T02:26:40;6.4;60.4
78571;SHT31;67861;51.966;5.672;2024-01-15T02:29:09;6.3;60.7
78571;SHT31;67861;51.966;5.672;2024-01-15T02:31:39;6.3;60.7
78571;SHT31;67861;51.966;5.672;2024-01-15T02:34:07;6.3;60.8
78571;SHT31;67861;51.966;5.672;2024-01-15T02:36:36;6.3;61.1
78571;SHT31;67861;51.966;5.672;2024-01-15T02:39:04;6.3;61.2
78571;SHT31;67861;51.966;5.672;2024-01-15T02:41:33;6.3;61.5
78571;SHT31;67861;51.966;5.672;2024-01-15T02:44:01;6.3;61.6
78571;SHT31;67861;51.966;5.672;2024-01-15T02:46:30;6.3;61.7
78571;SHT31;67861;51.966;5.672;2024-01-15T02:48:58;6.3;61.8
78571;SHT31;67861;51.966;5.672;2024-01-15T02:51:27;6.3;61.7
78571;SHT31;67861;51.966;5.672;2024-01-15T02:53:57;6.3;61.7
78571;SHT31;67861;51.966;5.672;2024-01-15T02:56:26;6.3;61.7
78571;SHT31;67861;51.966;5.672;2024-01-15T02:58:54;6.3;61.6
78571;SHT31;67861;51.966;5.672;2024-01-15T03:01:25;6.3;61.4
78571;SHT31;67861;51.966;5.672;2024-01-15T03:03:53;6.4;61.3
78571;SHT31;67861;51.966;5.672;2024-01-15T03:06:21;6.4;61.5
78571;SHT31;67861;51.966;5.672;2024-01-15T03:08:50;6.4;61.7
78571;SHT31;67861;51.966;5.672;2024-01-15T03:11:19;6.4;61.6
78571;SHT31;67861;51.966;5.672;2024-01-15T03:13:47;6.4;61.4
78571;SHT31;67861;51.966;5.672;2024-01-15T03:16:17;6.4;61.3
78571;SHT31;67861;51.966;5.672;2024-01-15T03:18:47;6.4;61.2
78571;SHT31;67861;51.966;5.672;2024-01-15T03:21:17;6.4;61.1
78571;SHT31;67861;51.966;5.672;2024-01-15T03:23:46;6.5;60.9
78571;SHT31;67861;51.966;5.672;2024-01-15T03:26:14;6.5;60.9
78571;SHT31;67861;51.966;5.672;2024-01-15T03:28:43;6.5;60.9
78571;SHT31;67861;51.966;5.672;2024-01-15T03:31:12;6.5;61.0
78571;SHT31;67861;51.966;5.672;2024-01-15T03:33:40;6.5;61.0
78571;SHT31;67861;51.966;5.672;2024-01-15T03:36:11;6.5;60.9
78571;SHT31;67861;51.966;5.672;2024-01-15T03:38:41;6.5;60.7
78571;SHT31;67861;51.966;5.672;2024-01-15T03:41:12;6.5;60.6
78571;SHT31;67861;51.966;5.672;2024-01-15T03:43:42;6.5;60.5
78571;SHT31;67861;51.966;5.672;2024-01-15T03:46:11;6.5;60.5
78571;SHT31;67861;51.966;5.672;2024-01-15T03:48:40;6.5;60.4
78571;SHT31;67861;51.966;5.672;2024-01-15T03:51:11;6.5;60.2
78571;SHT31;67861;51.966;5.672;2024-01-15T03:53:39;6.5;60.2
78571;SHT31;67861;51.966;5.672;2024-01-15T03:56:08;6.5;60.3
78571;SHT31;67861;51.966;5.672;2024-01-15T03:58:36;6.5;60.4
78571;SHT31;67861;51.966;5.672;2024-01-15T04:01:07;6.5;60.5
78571;SHT31;67861;51.966;5.672;2024-01-15T04:03:37;6.5;60.7
78571;SHT31;67861;51.966;5.672;2024-01-15T04:06:05;6.5;60.7
78571;SHT31;67861;51.966;5.672;2024-01-15T04:08:34;6.5;60.6
78571;SHT31;67861;51.966;5.672;2024-01-15T04:11:03;6.5;60.5
78571;SHT31;67861;51.966;5.672;2024-01-15T04:13:34;6.6;60.5
78571;SHT31;67861;51.966;5.672;2024-01-15T04:16:02;6.6;60.7
78571;SHT31;67861;51.966;5.672;2024-01-15T04:18:33;6.6;60.9
78571;SHT31;67861;51.966;5.672;2024-01-15T04:21:03;6.6;60.9
78571;SHT31;67861;51.966;5.672;2024-01-15T04:23:32;6.6;60.8
78571;SHT31;67861;51.966;5.672;2024-01-15T04:26:00;6.6;60.8
78571;SHT31;67861;51.966;5.672;2024-01-15T04:28:29;6.6;60.8
78571;SHT31;67861;51.966;5.672;2024-01-15T04:30:57;6.6;60.8
78571;SHT31;67861;51.966;5.672;2024-01-15T04:33:26;6.6;60.9
78571;SHT31;67861;51.966;5.672;2024-01-15T04:35:54;6.7;60.8
78571;SHT31;67861;51.966;5.672;2024-01-15T04:38:23;6.7;60.8
78571;SHT31;67861;51.966;5.672;2024-01-15T04:40:53;6.7;60.8
78571;SHT31;67861;51.966;5.672;2024-01-15T04:43:21;6.7;60.7
78571;SHT31;67861;51.966;5.672;2024-01-15T04:45:50;6.7;60.4
78571;SHT31;67861;51.966;5.672;2024-01-15T04:48:18;6.7;60.1
78571;SHT31;67861;51.966;5.672;2024-01-15T04:50:49;6.8;60.0
78571;SHT31;67861;51.966;5.672;2024-01-15T04:53:17;6.8;59.9
78571;SHT31;67861;51.966;5.672;2024-01-15T04:55:46;6.8;59.8
78571;SHT31;67861;51.966;5.672;2024-01-15T04:58:14;6.8;59.8
78571;SHT31;67861;51.966;5.672;2024-01-15T05:00:42;6.8;59.7
78571;SHT31;67861;51.966;5.672;2024-01-15T05:03:11;6.7;59.7
78571;SHT31;67861;51.966;5.672;2024-01-15T05:05:39;6.7;59.7
78571;SHT31;67861;51.966;5.672;2024-01-15T05:08:08;6.7;59.9
78571;SHT31;67861;51.966;5.672;2024-01-15T05:10:37;6.7;60.0
78571;SHT31;67861;51.966;5.672;2024-01-15T05:13:05;6.6;60.2
78571;SHT31;67861;51.966;5.672;2024-01-15T05:15:34;6.6;60.5
78571;SHT31;67861;51.966;5.672;2024-01-15T05:18:02;6.6;60.8
78571;SHT31;67861;51.966;5.672;2024-01-15T05:20:31;6.5;61.2
78571;SHT31;67861;51.966;5.672;2024-01-15T05:22:59;6.5;61.3
78571;SHT31;67861;51.966;5.672;2024-01-15T05:25:28;6.5;61.2
78571;SHT31;67861;51.966;5.672;2024-01-15T05:27:56;6.5;61.4
78571;SHT31;67861;51.966;5.672;2024-01-15T05:30:25;6.5;61.6
78571;SHT31;67861;51.966;5.672;2024-01-15T05:32:53;6.5;61.9
78571;SHT31;67861;51.966;5.672;2024-01-15T05:35:23;6.5;62.1
78571;SHT31;67861;51.966;5.672;2024-01-15T05:37:54;6.4;62.3
78571;SHT31;67861;51.966;5.672;2024-01-15T05:40:24;6.4;62.4
78571;SHT31;67861;51.966;5.672;2024-01-15T05:42:54;6.4;62.5
78571;SHT31;67861;51.966;5.672;2024-01-15T05:45:23;6.4;62.6
78571;SHT31;67861;51.966;5.672;2024-01-15T05:47:51;6.4;62.7
78571;SHT31;67861;51.966;5.672;2024-01-15T05:50:20;6.4;62.8
78571;SHT31;67861;51.966;5.672;2024-01-15T05:52:48;6.4;62.9
78571;SHT31;67861;51.966;5.672;2024-01-15T05:55:19;6.4;63.0
78571;SHT31;67861;51.966;5.672;2024-01-15T05:57:47;6.4;63.1
78571;SHT31;67861;51.966;5.672;2024-01-15T06:00:16;6.4;63.0
78571;SHT31;67861;51.966;5.672;2024-01-15T06:02:45;6.4;63.0
78571;SHT31;67861;51.966;5.672;2024-01-15T06:05:13;6.4;63.0
78571;SHT31;67861;51.966;5.672;2024-01-15T06:07:42;6.4;63.0
78571;SHT31;67861;51.966;5.672;2024-01-15T06:10:10;6.4;63.1
78571;SHT31;67861;51.966;5.672;2024-01-15T06:12:39;6.4;63.2
78571;SHT31;67861;51.966;5.672;2024-01-15T06:15:08;6.4;63.2
78571;SHT31;67861;51.966;5.672;2024-01-15T06:17:36;6.4;63.3
78571;SHT31;67861;51.966;5.672;2024-01-15T06:20:07;6.4;63.3
78571;SHT31;67861;51.966;5.672;2024-01-15T06:22:35;6.4;63.3
78571;SHT31;67861;51.966;5.672;2024-01-15T06:25:06;6.4;63.3
78571;SHT31;67861;51.966;5.672;2024-01-15T06:27:34;6.5;63.3
78571;SHT31;67861;51.966;5.672;2024-01-15T06:30:03;6.5;63.3
78571;SHT31;67861;51.966;5.672;2024-01-15T06:32:33;6.5;63.1
78571;SHT31;67861;51.966;5.672;2024-01-15T06:35:01;6.5;62.8
78571;SHT31;67861;51.966;5.672;2024-01-15T06:37:30;6.5;62.8
78571;SHT31;67861;51.966;5.672;2024-01-15T06:40:00;6.5;62.6
78571;SHT31;67861;51.966;5.672;2024-01-15T06:42:29;6.6;62.5
78571;SHT31;67861;51.966;5.672;2024-01-15T06:44:57;6.6;62.1
78571;SHT31;67861;51.966;5.672;2024-01-15T06:47:26;6.6;61.9
78571;SHT31;67861;51.966;5.672;2024-01-15T06:49:54;6.6;61.7
78571;SHT31;67861;51.966;5.672;2024-01-15T06:52:23;6.6;61.6
78571;SHT31;67861;51.966;5.672;2024-01-15T06:54:51;6.6;61.8
78571;SHT31;67861;51.966;5.672;2024-01-15T06:57:20;6.6;61.8
78571;SHT31;67861;51.966;5.672;2024-01-15T06:59:49;6.5;61.8
78571;SHT31;67861;51.966;5.672;2024-01-15T07:02:17;6.5;61.9
78571;SHT31;67861;51.966;5.672;2024-01-15T07:04:45;6.5;61.9
78571;SHT31;67861;51.966;5.672;2024-01-15T07:07:14;6.5;61.9
78571;SHT31;67861;51.966;5.672;2024-01-15T07:09:43;6.5;61.8
78571;SHT31;67861;51.966;5.672;2024-01-15T07:12:11;6.5;61.8
78571;SHT31;67861;51.966;5.672;2024-01-15T07:14:40;6.5;61.8
78571;SHT31;67861;51.966;5.672;2024-01-15T07:17:08;6.5;61.8
78571;SHT31;67861;51.966;5.672;2024-01-15T07:19:37;6.5;61.8
78571;SHT31;67861;51.966;5.672;2024-01-15T07:22:06;6.5;61.8
78571;SHT31;67861;51.966;5.672;2024-01-15T07:24:34;6.5;61.9
78571;SHT31;67861;51.966;5.672;2024-01-15T07:27:03;6.5;61.9
78571;SHT31;67861;51.966;5.672;2024-01-15T07:29:32;6.5;61.9
78571;SHT31;67861;51.966;5.672;2024-01-15T07:32:04;6.5;61.9
78571;SHT31;67861;51.966;5.672;2024-01-15T07:34:34;6.5;61.9
78571;SHT31;67861;51.966;5.672;2024-01-15T07:37:03;6.5;61.8
78571;SHT31;67861;51.966;5.672;2024-01-15T07:39:31;6.5;61.9
78571;SHT31;67861;51.966;5.672;2024-01-15T07:42:01;6.5;62.0
78571;SHT31;67861;51.966;5.672;2024-01-15T07:44:29;6.5;62.1
78571;SHT31;67861;51.966;5.672;2024-01-15T07:46:58;6.5;62.1
78571;SHT31;67861;51.966;5.672;2024-01-15T07:49:26;6.5;62.0
78571;SHT31;67861;51.966;5.672;2024-01-15T07:51:55;6.5;61.9
78571;SHT31;67861;51.966;5.672;2024-01-15T07:54:24;6.5;62.0
78571;SHT31;67861;51.966;5.672;2024-01-15T07:56:56;6.4;62.1
78571;SHT31;67861;51.966;5.672;2024-01-15T07:59:26;6.4;62.3
78571;SHT31;67861;51.966;5.672;2024-01-15T08:01:55;6.4;62.5
78571;SHT31;67861;51.966;5.672;2024-01-15T08:04:23;6.3;62.6
78571;SHT31;67861;51.966;5.672;2024-01-15T08:06:52;6.3;62.7
78571;SHT31;67861;51.966;5.672;2024-01-15T08:09:21;6.3;62.7
78571;SHT31;67861;51.966;5.672;2024-01-15T08:11:49;6.3;62.8
78571;SHT31;67861;51.966;5.672;2024-01-15T08:14:18;6.3;63.0
78571;SHT31;67861;51.966;5.672;2024-01-15T08:16:46;6.4;62.8
78571;SHT31;67861;51.966;5.672;2024-01-15T08:19:15;6.4;62.7
78571;SHT31;67861;51.966;5.672;2024-01-15T08:21:43;6.4;62.7
78571;SHT31;67861;51.966;5.672;2024-01-15T08:24:12;6.4;62.7
78571;SHT31;67861;51.966;5.672;2024-01-15T08:26:40;6.4;62.6
78571;SHT31;67861;51.966;5.672;2024-01-15T08:29:09;6.4;62.7
78571;SHT31;67861;51.966;5.672;2024-01-15T08:31:38;6.4;62.7
78571;SHT31;67861;51.966;5.672;2024-01-15T08:34:06;6.4;62.6
78571;SHT31;67861;51.966;5.672;2024-01-15T08:36:35;6.4;62.7
78571;SHT31;67861;51.966;5.672;2024-01-15T08:39:03;6.4;62.7
78571;SHT31;67861;51.966;5.672;2024-01-15T08:41:33;6.4;62.7
78571;SHT31;67861;51.966;5.672;2024-01-15T08:44:02;6.4;62.7
78571;SHT31;67861;51.966;5.672;2024-01-15T08:46:31;6.4;62.7
78571;SHT31;67861;51.966;5.672;2024-01-15T08:48:59;6.4;62.7
78571;SHT31;67861;51.966;5.672;2024-01-15T08:51:29;6.4;62.7
78571;SHT31;67861;51.966;5.672;2024-01-15T08:54:00;6.4;62.7
78571;SHT31;67861;51.966;5.672;2024-01-15T08:56:28;6.4;62.7
78571;SHT31;67861;51.966;5.672;2024-01-15T08:58:59;6.5;62.7
78571;SHT31;67861;51.966;5.672;2024-01-15T09:01:27;6.5;62.7
78571;SHT31;67861;51.966;5.672;2024-01-15T09:03:56;6.5;62.6
78571;SHT31;67861;51.966;5.672;2024-01-15T09:06:25;6.5;62.5
78571;SHT31;67861;51.966;5.672;2024-01-15T09:08:53;6.6;62.4
78571;SHT31;67861;51.966;5.672;2024-01-15T09:11:22;6.6;62.4
78571;SHT31;67861;51.966;5.672;2024-01-15T09:13:51;6.6;62.4
78571;SHT31;67861;51.966;5.672;2024-01-15T09:16:19;6.6;62.4
78571;SHT31;67861;51.966;5.672;2024-01-15T09:18:48;6.6;62.1
78571;SHT31;67861;51.966;5.672;2024-01-15T09:21:16;6.6;62.0
78571;SHT31;67861;51.966;5.672;2024-01-15T09:23:47;6.6;62.1
78571;SHT31;67861;51.966;5.672;2024-01-15T09:26:16;6.6;62.2
78571;SHT31;67861;51.966;5.672;2024-01-15T09:28:45;6.6;62.4
78571;SHT31;67861;51.966;5.672;2024-01-15T09:31:13;6.6;62.9
78571;SHT31;67861;51.966;5.672;2024-01-15T09:33:43;6.6;63.1
78571;SHT31;67861;51.966;5.672;2024-01-15T09:36:12;6.6;63.4
78571;SHT31;67861;51.966;5.672;2024-01-15T09:38:43;6.6;62.9
78571;SHT31;67861;51.966;5.672;2024-01-15T09:41:12;6.6;62.3
78571;SHT31;67861;51.966;5.672;2024-01-15T09:43:41;6.6;62.0
78571;SHT31;67861;51.966;5.672;2024-01-15T09:46:10;6.6;62.2
78571;SHT31;67861;51.966;5.672;2024-01-15T09:48:39;6.6;62.2
78571;SHT31;67861;51.966;5.672;2024-01-15T09:51:10;6.6;62.0
78571;SHT31;67861;51.966;5.672;2024-01-15T09:53:42;6.6;62.0
78571;SHT31;67861;51.966;5.672;2024-01-15T09:56:11;6.6;62.3
78571;SHT31;67861;51.966;5.672;2024-01-15T09:58:41;6.6;62.6
78571;SHT31;67861;51.966;5.672;2024-01-15T10:01:11;6.6;62.4
78571;SHT31;67861;51.966;5.672;2024-01-15T10:03:42;6.6;62.7
78571;SHT31;67861;51.966;5.672;2024-01-15T10:06:11;6.7;62.9
78571;SHT31;67861;51.966;5.672;2024-01-15T10:08:47;6.7;63.4
78571;SHT31;67861;51.966;5.672;2024-01-15T10:11:16;6.7;63.0
78571;SHT31;67861;51.966;5.672;2024-01-15T10:13:46;6.7;62.6
78571;SHT31;67861;51.966;5.672;2024-01-15T10:16:18;6.7;62.5
78571;SHT31;67861;51.966;5.672;2024-01-15T10:18:48;6.7;62.2
78571;SHT31;67861;51.966;5.672;2024-01-15T10:21:19;6.7;62.3
78571;SHT31;67861;51.966;5.672;2024-01-15T10:23:47;6.7;62.0
78571;SHT31;67861;51.966;5.672;2024-01-15T10:26:16;6.7;61.9
78571;SHT31;67861;51.966;5.672;2024-01-15T10:28:44;6.7;62.0
78571;SHT31;67861;51.966;5.672;2024-01-15T10:31:13;6.7;62.6
78571;SHT31;67861;51.966;5.672;2024-01-15T10:33:43;6.7;62.7
78571;SHT31;67861;51.966;5.672;2024-01-15T10:36:12;6.7;63.2
78571;SHT31;67861;51.966;5.672;2024-01-15T10:38:42;6.7;64.3
78571;SHT31;67861;51.966;5.672;2024-01-15T10:41:11;6.7;64.9
78571;SHT31;67861;51.966;5.672;2024-01-15T10:43:42;6.7;64.8
78571;SHT31;67861;51.966;5.672;2024-01-15T10:46:12;6.8;65.0
78571;SHT31;67861;51.966;5.672;2024-01-15T10:48:41;6.9;65.4
78571;SHT31;67861;51.966;5.672;2024-01-15T10:51:11;6.9;65.7
78571;SHT31;67861;51.966;5.672;2024-01-15T10:53:42;7.0;64.7
78571;SHT31;67861;51.966;5.672;2024-01-15T10:56:12;7.1;63.2
78571;SHT31;67861;51.966;5.672;2024-01-15T10:58:43;7.1;62.2
78571;SHT31;67861;51.966;5.672;2024-01-15T11:01:13;7.2;61.4
78571;SHT31;67861;51.966;5.672;2024-01-15T11:03:42;7.2;61.2
78571;SHT31;67861;51.966;5.672;2024-01-15T11:06:18;7.2;61.3
78571;SHT31;67861;51.966;5.672;2024-01-15T11:08:49;7.2;61.4
78571;SHT31;67861;51.966;5.672;2024-01-15T11:11:18;7.3;61.0
78571;SHT31;67861;51.966;5.672;2024-01-15T11:13:48;7.3;61.4
78571;SHT31;67861;51.966;5.672;2024-01-15T11:16:18;7.3;61.2
78571;SHT31;67861;51.966;5.672;2024-01-15T11:19:02;7.3;61.1
78571;SHT31;67861;51.966;5.672;2024-01-15T11:21:32;7.3;61.9
78571;SHT31;67861;51.966;5.672;2024-01-15T11:24:02;7.4;62.5
78571;SHT31;67861;51.966;5.672;2024-01-15T11:26:35;7.4;61.8
78571;SHT31;67861;51.966;5.672;2024-01-15T11:29:06;7.4;61.3
78571;SHT31;67861;51.966;5.672;2024-01-15T11:32:00;7.4;61.1
78571;SHT31;67861;51.966;5.672;2024-01-15T11:34:53;7.4;61.3
78571;SHT31;67861;51.966;5.672;2024-01-15T11:37:25;7.4;61.2
78571;SHT31;67861;51.966;5.672;2024-01-15T11:39:55;7.4;61.3
78571;SHT31;67861;51.966;5.672;2024-01-15T11:42:26;7.4;61.6
78571;SHT31;67861;51.966;5.672;2024-01-15T11:44:54;7.4;61.3
78571;SHT31;67861;51.966;5.672;2024-01-15T11:50:18;7.4;60.9
78571;SHT31;67861;51.966;5.672;2024-01-15T11:52:56;7.4;60.9
78571;SHT31;67861;51.966;5.672;2024-01-15T11:55:30;7.4;60.9
78571;SHT31;67861;51.966;5.672;2024-01-15T11:58:09;7.3;61.4
78571;SHT31;67861;51.966;5.672;2024-01-15T12:00:42;7.3;62.1
78571;SHT31;67861;51.966;5.672;2024-01-15T12:03:11;7.3;62.9
78571;SHT31;67861;51.966;5.672;2024-01-15T12:05:40;7.3;62.5
78571;SHT31;67861;51.966;5.672;2024-01-15T12:08:10;7.3;62.5
78571;SHT31;67861;51.966;5.672;2024-01-15T12:10:40;7.3;62.0
78571;SHT31;67861;51.966;5.672;2024-01-15T12:13:12;7.3;61.6
78571;SHT31;67861;51.966;5.672;2024-01-15T12:15:42;7.4;61.7
78571;SHT31;67861;51.966;5.672;2024-01-15T12:18:12;7.4;61.6
78571;SHT31;67861;51.966;5.672;2024-01-15T12:20:42;7.4;61.8
78571;SHT31;67861;51.966;5.672;2024-01-15T12:23:13;7.4;61.8
78571;SHT31;67861;51.966;5.672;2024-01-15T12:25:43;7.4;62.0
78571;SHT31;67861;51.966;5.672;2024-01-15T12:28:12;7.4;61.7
78571;SHT31;67861;51.966;5.672;2024-01-15T12:30:40;7.4;61.6
78571;SHT31;67861;51.966;5.672;2024-01-15T12:33:09;7.4;61.3
78571;SHT31;67861;51.966;5.672;2024-01-15T12:35:37;7.4;61.3
78571;SHT31;67861;51.966;5.672;2024-01-15T12:38:07;7.4;61.6
78571;SHT31;67861;51.966;5.672;2024-01-15T12:40:36;7.4;62.0
78571;SHT31;67861;51.966;5.672;2024-01-15T12:43:05;7.4;62.1
78571;SHT31;67861;51.966;5.672;2024-01-15T12:45:36;7.4;62.7
78571;SHT31;67861;51.966;5.672;2024-01-15T12:48:05;7.4;62.3
78571;SHT31;67861;51.966;5.672;2024-01-15T12:50:35;7.4;62.8
78571;SHT31;67861;51.966;5.672;2024-01-15T12:53:03;7.4;61.3
78571;SHT31;67861;51.966;5.672;2024-01-15T12:55:32;7.4;61.0
78571;SHT31;67861;51.966;5.672;2024-01-15T12:58:01;7.4;60.4
78571;SHT31;67861;51.966;5.672;2024-01-15T13:00:30;7.4;60.8
78571;SHT31;67861;51.966;5.672;2024-01-15T13:02:58;7.4;61.7
78571;SHT31;67861;51.966;5.672;2024-01-15T13:05:31;7.4;61.5
78571;SHT31;67861;51.966;5.672;2024-01-15T13:08:00;7.4;61.7
78571;SHT31;67861;51.966;5.672;2024-01-15T13:10:29;7.3;60.4
78571;SHT31;67861;51.966;5.672;2024-01-15T13:12:58;7.3;59.8
78571;SHT31;67861;51.966;5.672;2024-01-15T13:15:26;7.3;60.0
78571;SHT31;67861;51.966;5.672;2024-01-15T13:17:55;7.2;59.6
78571;SHT31;67861;51.966;5.672;2024-01-15T13:20:25;7.2;60.0
78571;SHT31;67861;51.966;5.672;2024-01-15T13:22:54;7.2;59.5
78571;SHT31;67861;51.966;5.672;2024-01-15T13:25:22;7.2;59.9
78571;SHT31;67861;51.966;5.672;2024-01-15T13:27:53;7.1;60.1
78571;SHT31;67861;51.966;5.672;2024-01-15T13:30:21;7.1;60.5
78571;SHT31;67861;51.966;5.672;2024-01-15T13:32:50;7.1;60.5
78571;SHT31;67861;51.966;5.672;2024-01-15T13:35:20;7.0;60.8
78571;SHT31;67861;51.966;5.672;2024-01-15T13:37:48;7.0;60.5
78571;SHT31;67861;51.966;5.672;2024-01-15T13:40:19;7.0;60.8
78571;SHT31;67861;51.966;5.672;2024-01-15T13:42:48;7.0;61.0
78571;SHT31;67861;51.966;5.672;2024-01-15T13:45:18;7.0;61.0
78571;SHT31;67861;51.966;5.672;2024-01-15T13:47:47;7.0;60.0
78571;SHT31;67861;51.966;5.672;2024-01-15T13:50:15;7.0;60.5
78571;SHT31;67861;51.966;5.672;2024-01-15T13:52:46;7.0;61.1
78571;SHT31;67861;51.966;5.672;2024-01-15T13:55:14;7.0;61.0
78571;SHT31;67861;51.966;5.672;2024-01-15T13:57:43;7.0;61.3
78571;SHT31;67861;51.966;5.672;2024-01-15T14:00:12;7.1;60.7
78571;SHT31;67861;51.966;5.672;2024-01-15T14:02:45;7.1;60.6
78571;SHT31;67861;51.966;5.672;2024-01-15T14:05:14;7.1;60.1
78571;SHT31;67861;51.966;5.672;2024-01-15T14:07:42;7.1;59.9
78571;SHT31;67861;51.966;5.672;2024-01-15T14:10:11;7.2;59.9
78571;SHT31;67861;51.966;5.672;2024-01-15T14:12:40;7.2;59.8
78571;SHT31;67861;51.966;5.672;2024-01-15T14:15:11;7.2;59.6
78571;SHT31;67861;51.966;5.672;2024-01-15T14:17:39;7.2;59.5
78571;SHT31;67861;51.966;5.672;2024-01-15T14:20:08;7.2;59.9
78571;SHT31;67861;51.966;5.672;2024-01-15T14:22:37;7.2;60.0
78571;SHT31;67861;51.966;5.672;2024-01-15T14:25:07;7.2;60.0
78571;SHT31;67861;51.966;5.672;2024-01-15T14:27:36;7.2;60.2
78571;SHT31;67861;51.966;5.672;2024-01-15T14:30:06;7.2;60.1
78571;SHT31;67861;51.966;5.672;2024-01-15T14:32:34;7.2;60.0
78571;SHT31;67861;51.966;5.672;2024-01-15T14:35:04;7.1;60.4
78571;SHT31;67861;51.966;5.672;2024-01-15T14:37:36;7.1;60.3
78571;SHT31;67861;51.966;5.672;2024-01-15T14:40:05;7.1;60.8
78571;SHT31;67861;51.966;5.672;2024-01-15T14:42:38;7.1;60.6
78571;SHT31;67861;51.966;5.672;2024-01-15T14:45:08;7.1;60.7
78571;SHT31;67861;51.966;5.672;2024-01-15T14:47:38;7.1;60.3
78571;SHT31;67861;51.966;5.672;2024-01-15T14:50:08;7.1;59.9
78571;SHT31;67861;51.966;5.672;2024-01-15T14:52:39;7.1;59.3
78571;SHT31;67861;51.966;5.672;2024-01-15T14:55:08;7.1;59.1
78571;SHT31;67861;51.966;5.672;2024-01-15T14:57:37;7.0;59.0
78571;SHT31;67861;51.966;5.672;2024-01-15T15:00:07;7.0;59.3
78571;SHT31;67861;51.966;5.672;2024-01-15T15:02:36;7.0;59.2
78571;SHT31;67861;51.966;5.672;2024-01-15T15:05:05;7.0;59.1
78571;SHT31;67861;51.966;5.672;2024-01-15T15:07:34;7.0;59.5
78571;SHT31;67861;51.966;5.672;2024-01-15T15:10:03;7.0;59.7
78571;SHT31;67861;51.966;5.672;2024-01-15T15:12:33;7.0;59.8
78571;SHT31;67861;51.966;5.672;2024-01-15T15:15:02;7.0;59.9
78571;SHT31;67861;51.966;5.672;2024-01-15T15:17:30;7.0;60.2
78571;SHT31;67861;51.966;5.672;2024-01-15T15:19:59;7.0;60.5
78571;SHT31;67861;51.966;5.672;2024-01-15T15:22:28;7.0;60.5
78571;SHT31;67861;51.966;5.672;2024-01-15T15:24:57;7.0;60.4
78571;SHT31;67861;51.966;5.672;2024-01-15T15:27:27;7.0;60.5
78571;SHT31;67861;51.966;5.672;2024-01-15T15:29:55;7.0;60.5
78571;SHT31;67861;51.966;5.672;2024-01-15T15:32:24;7.0;60.4
78571;SHT31;67861;51.966;5.672;2024-01-15T15:34:53;7.0;60.3
78571;SHT31;67861;51.966;5.672;2024-01-15T15:37:21;7.0;60.4
78571;SHT31;67861;51.966;5.672;2024-01-15T15:39:49;6.9;60.2
78571;SHT31;67861;51.966;5.672;2024-01-15T15:42:18;6.9;60.0
78571;SHT31;67861;51.966;5.672;2024-01-15T15:44:47;6.9;60.0
78571;SHT31;67861;51.966;5.672;2024-01-15T15:47:17;6.9;59.9
78571;SHT31;67861;51.966;5.672;2024-01-15T15:49:45;6.9;59.8
78571;SHT31;67861;51.966;5.672;2024-01-15T15:52:14;6.9;59.7
78571;SHT31;67861;51.966;5.672;2024-01-15T15:54:42;6.8;59.7
78571;SHT31;67861;51.966;5.672;2024-01-15T15:57:11;6.8;59.9
78571;SHT31;67861;51.966;5.672;2024-01-15T15:59:39;6.8;60.2
78571;SHT31;67861;51.966;5.672;2024-01-15T16:02:08;6.8;60.2
78571;SHT31;67861;51.966;5.672;2024-01-15T16:04:36;6.8;60.2
78571;SHT31;67861;51.966;5.672;2024-01-15T16:07:05;6.8;60.1
78571;SHT31;67861;51.966;5.672;2024-01-15T16:09:38;6.8;59.8
78571;SHT31;67861;51.966;5.672;2024-01-15T16:12:07;6.8;59.7
78571;SHT31;67861;51.966;5.672;2024-01-15T16:14:36;6.8;59.7
78571;SHT31;67861;51.966;5.672;2024-01-15T16:17:05;6.8;59.8
78571;SHT31;67861;51.966;5.672;2024-01-15T16:19:36;6.8;60.1
78571;SHT31;67861;51.966;5.672;2024-01-15T16:22:06;6.8;60.3
78571;SHT31;67861;51.966;5.672;2024-01-15T16:24:35;6.8;60.3
78571;SHT31;67861;51.966;5.672;2024-01-15T16:27:04;6.8;60.2
78571;SHT31;67861;51.966;5.672;2024-01-15T16:29:34;6.8;60.2
78571;SHT31;67861;51.966;5.672;2024-01-15T16:32:03;6.8;60.1